Time;durP1;ratioP1;P1;durP2;ratioP2;P2;SDS_P1;SDS_P2;PMS_P1;PMS_P2;Temp;Humidity;BMP_temperature;BMP_pressure;BME280_temperature;BME280_humidity;BME280_pressure;Samples;Min_cycle;Max_cycle;Signal;HPM_P1;HPM_P2
2022/10/21 00:01:25;;;;;;;3.63;3.40;;;16.00;99.90;;;;;;5099413;28;20296;-67
2022/10/21 00:03:52;;;;;;;3.73;3.47;;;15.90;99.90;;;;;;5094780;28;20226;-68
2022/10/21 00:06:19;;;;;;;4.20;3.03;;;15.90;99.90;;;;;;5094507;28;20281;-68
2022/10/21 00:08:45;;;;;;;3.47;3.17;;;15.90;99.90;;;;;;5089976;28;20231;-68
2022/10/21 00:11:12;;;;;;;3.27;3.00;;;15.90;99.90;;;;;;5091226;28;20203;-68
2022/10/21 00:13:40;;;;;;;3.27;2.97;;;15.90;99.90;;;;;;5095608;28;20213;-70
2022/10/21 00:16:11;;;;;;;3.20;3.00;;;16.00;99.90;;;;;;5105382;28;20296;-68
2022/10/21 00:18:40;;;;;;;2.87;2.67;;;16.00;99.90;;;;;;5094525;28;20330;-70
2022/10/21 00:21:08;;;;;;;3.17;2.97;;;16.00;99.90;;;;;;5099024;28;20290;-68
2022/10/21 00:23:35;;;;;;;2.97;2.77;;;16.00;99.90;;;;;;5097114;28;20285;-69
2022/10/21 00:26:02;;;;;;;2.70;2.50;;;16.10;99.90;;;;;;5100155;28;20271;-68
2022/10/21 00:28:31;;;;;;;3.67;2.57;;;16.10;99.90;;;;;;5096805;28;20324;-69
2022/10/21 00:30:58;;;;;;;2.40;2.30;;;16.10;99.90;;;;;;5088609;28;20687;-68
2022/10/21 00:33:27;;;;;;;2.47;2.30;;;16.10;99.90;;;;;;5087801;28;20198;-68
2022/10/21 00:35:56;;;;;;;2.67;2.47;;;16.10;99.90;;;;;;5090465;28;20225;-68
2022/10/21 00:38:23;;;;;;;3.30;2.60;;;16.10;99.90;;;;;;5092987;28;20254;-69
2022/10/21 00:40:50;;;;;;;2.80;2.60;;;16.10;99.90;;;;;;5091660;28;20894;-69
2022/10/21 00:43:17;;;;;;;2.93;2.73;;;16.10;99.90;;;;;;5092284;28;20209;-70
2022/10/21 00:45:45;;;;;;;2.30;2.20;;;16.10;99.90;;;;;;5090621;28;20205;-69
2022/10/21 00:48:18;;;;;;;2.90;2.70;;;16.10;99.90;;;;;;5092312;28;20603;-70
2022/10/21 00:50:53;;;;;;;2.70;2.50;;;16.00;99.90;;;;;;5093104;28;20302;-68
2022/10/21 00:53:21;;;;;;;2.53;2.33;;;15.90;99.90;;;;;;5090767;28;20209;-67
2022/10/21 00:55:52;;;;;;;2.97;2.70;;;15.90;99.90;;;;;;5092595;28;20218;-69
2022/10/21 00:58:22;;;;;;;2.87;2.70;;;15.80;99.90;;;;;;5094509;28;20795;-69
2022/10/21 01:00:51;;;;;;;2.97;2.70;;;15.80;99.90;;;;;;5100016;28;20772;-69
2022/10/21 01:03:17;;;;;;;2.77;2.57;;;15.70;99.90;;;;;;5090848;28;20199;-68
2022/10/21 01:05:45;;;;;;;2.80;2.60;;;15.70;99.90;;;;;;5090568;28;20205;-67
2022/10/21 01:08:13;;;;;;;2.27;2.17;;;15.60;99.90;;;;;;5088589;28;20309;-69
2022/10/21 01:10:40;;;;;;;2.70;2.50;;;15.60;99.90;;;;;;5092893;28;20234;-70
2022/10/21 01:13:16;;;;;;;2.30;2.20;;;15.60;99.90;;;;;;5091920;28;20292;-67
2022/10/21 01:15:50;;;;;;;2.80;2.60;;;15.60;99.90;;;;;;5092443;28;20223;-69
2022/10/21 01:18:21;;;;;;;2.60;2.40;;;15.60;99.90;;;;;;5091357;28;20218;-70
2022/10/21 01:21:11;;;;;;;2.77;2.57;;;15.60;99.90;;;;;;5092665;28;20199;-69
2022/10/21 01:24:08;;;;;;;2.30;2.10;;;15.70;99.90;;;;;;5090571;28;20205;-69
2022/10/21 01:27:11;;;;;;;2.50;2.10;;;15.70;99.90;;;;;;5091286;28;20214;-70
2022/10/21 01:30:07;;;;;;;2.47;2.33;;;15.80;99.90;;;;;;5090077;28;20595;-68
2022/10/21 01:32:56;;;;;;;2.40;2.20;;;15.80;99.90;;;;;;5087373;28;20235;-68
2022/10/21 01:35:26;;;;;;;2.20;2.10;;;15.80;99.90;;;;;;5087919;28;20593;-69
2022/10/21 01:38:03;;;;;;;2.87;2.50;;;15.80;99.90;;;;;;5089566;28;20209;-69
2022/10/21 01:40:36;;;;;;;2.97;2.77;;;15.80;99.90;;;;;;5091754;28;20214;-69
2022/10/21 01:43:14;;;;;;;2.47;2.27;;;15.90;99.90;;;;;;5089026;28;20709;-70
2022/10/21 01:45:47;;;;;;;3.20;2.30;;;15.90;99.90;;;;;;5087867;28;20282;-70
2022/10/21 01:48:19;;;;;;;2.50;2.30;;;15.90;99.90;;;;;;5091440;28;20229;-69
2022/10/21 01:50:51;;;;;;;2.30;2.10;;;16.00;99.90;;;;;;5092131;28;20206;-70
2022/10/21 01:53:19;;;;;;;2.40;2.20;;;16.10;99.90;;;;;;5089433;28;20664;-68
2022/10/21 01:55:48;;;;;;;2.20;2.10;;;16.10;99.90;;;;;;5091534;28;20229;-69
2022/10/21 01:58:18;;;;;;;2.40;2.10;;;16.20;99.90;;;;;;5091902;28;20230;-68
2022/10/21 02:00:47;;;;;;;2.60;1.90;;;16.40;99.90;;;;;;5090777;28;20620;-68
2022/10/21 02:03:20;;;;;;;2.00;1.90;;;16.20;99.90;;;;;;5088982;28;20658;-68
2022/10/21 02:05:48;;;;;;;2.07;1.97;;;16.20;99.90;;;;;;5092844;28;20199;-68
2022/10/21 02:08:15;;;;;;;2.23;1.70;;;16.20;99.90;;;;;;5093297;28;20225;-67
2022/10/21 02:10:45;;;;;;;2.57;1.90;;;16.20;99.90;;;;;;5091980;28;20212;-69
2022/10/21 02:13:16;;;;;;;2.93;2.33;;;16.20;99.90;;;;;;5088566;28;20198;-69
2022/10/21 02:15:44;;;;;;;2.00;1.90;;;16.20;99.90;;;;;;5088997;28;20226;-68
2022/10/21 02:18:20;;;;;;;1.90;1.70;;;16.20;99.90;;;;;;5091206;28;20693;-68
2022/10/21 02:20:51;;;;;;;2.63;1.87;;;16.30;99.90;;;;;;5090248;28;20282;-69
2022/10/21 02:23:20;;;;;;;1.70;1.60;;;16.30;99.90;;;;;;5090987;28;20278;-67
2022/10/21 02:25:50;;;;;;;2.20;2.00;;;16.40;99.90;;;;;;5094043;28;20199;-68
2022/10/21 02:28:18;;;;;;;1.70;1.60;;;16.40;99.90;;;;;;5106327;28;20257;-67
2022/10/21 02:30:53;;;;;;;4.50;1.90;;;16.50;99.90;;;;;;5096526;28;20203;-68
2022/10/21 02:33:30;;;;;;;1.87;1.70;;;16.50;99.90;;;;;;5103762;28;20608;-69
2022/10/21 02:36:07;;;;;;;1.77;1.67;;;16.50;99.90;;;;;;5099618;28;20316;-68
2022/10/21 02:38:41;;;;;;;1.87;1.60;;;16.50;99.90;;;;;;5098444;28;20225;-70
2022/10/21 02:41:13;;;;;;;1.60;1.50;;;16.50;99.90;;;;;;5095137;28;20199;-67
2022/10/21 02:43:43;;;;;;;1.93;1.83;;;16.40;99.90;;;;;;5091769;28;20202;-69
2022/10/21 02:46:13;;;;;;;1.63;1.53;;;16.40;99.90;;;;;;5084743;28;20205;-69
2022/10/21 02:48:44;;;;;;;2.03;1.60;;;16.50;99.90;;;;;;5085427;28;20637;-67
2022/10/21 02:51:11;;;;;;;1.60;1.50;;;16.50;99.90;;;;;;5085407;28;20200;-64
2022/10/21 02:53:38;;;;;;;1.77;1.67;;;16.50;99.90;;;;;;5085534;28;20314;-69
2022/10/21 02:56:06;;;;;;;1.60;1.50;;;16.70;99.90;;;;;;5090693;28;20306;-70
2022/10/21 02:58:33;;;;;;;2.30;1.60;;;16.50;99.90;;;;;;5082926;28;20245;-69
2022/10/21 03:01:00;;;;;;;1.87;1.77;;;16.50;99.90;;;;;;5080304;28;20202;-68
2022/10/21 03:03:28;;;;;;;3.40;1.73;;;16.60;99.90;;;;;;5084817;28;20203;-69
2022/10/21 03:05:57;;;;;;;1.40;1.40;;;16.60;99.90;;;;;;5091376;28;20199;-68
2022/10/21 03:08:23;;;;;;;1.90;1.63;;;16.60;99.90;;;;;;5097536;28;21147;-68
2022/10/21 03:10:51;;;;;;;2.00;1.80;;;16.80;99.90;;;;;;5105358;28;20206;-66
2022/10/21 03:13:18;;;;;;;1.90;1.60;;;16.60;99.90;;;;;;5092820;28;20205;-67
2022/10/21 03:15:45;;;;;;;1.80;1.70;;;16.70;99.90;;;;;;5080245;28;20674;-70
2022/10/21 03:18:11;;;;;;;1.70;1.60;;;16.70;99.90;;;;;;5082209;28;20221;-68
2022/10/21 03:20:38;;;;;;;2.30;1.90;;;16.70;99.90;;;;;;5090954;28;20202;-67
2022/10/21 03:23:07;;;;;;;1.67;1.57;;;16.70;99.90;;;;;;5084514;28;20207;-69
2022/10/21 03:25:34;;;;;;;1.57;1.47;;;16.80;99.90;;;;;;5088329;28;20209;-68
2022/10/21 03:28:00;;;;;;;1.80;1.70;;;16.80;99.90;;;;;;5094041;28;20249;-68
2022/10/21 03:30:27;;;;;;;2.60;1.43;;;16.80;99.90;;;;;;5094608;28;20552;-68
2022/10/21 03:32:54;;;;;;;1.40;1.40;;;16.80;99.90;;;;;;5093916;28;20565;-70
2022/10/21 03:35:21;;;;;;;1.50;1.40;;;16.80;99.90;;;;;;5094208;28;20293;-67
2022/10/21 03:37:48;;;;;;;2.00;1.80;;;16.80;99.90;;;;;;5094554;28;20294;-68
2022/10/21 03:40:16;;;;;;;1.97;1.70;;;16.80;99.90;;;;;;5096084;28;20677;-67
2022/10/21 03:42:43;;;;;;;1.67;1.57;;;16.80;99.90;;;;;;5095069;28;20712;-69
2022/10/21 03:45:11;;;;;;;1.70;1.60;;;16.80;99.90;;;;;;5103233;28;20270;-69
2022/10/21 03:47:38;;;;;;;1.50;1.40;;;16.80;99.90;;;;;;5105863;28;20649;-68
2022/10/21 03:50:06;;;;;;;1.87;1.50;;;16.80;99.90;;;;;;5096685;28;20229;-67
2022/10/21 03:52:33;;;;;;;1.57;1.40;;;16.80;99.90;;;;;;5093333;28;20213;-69
2022/10/21 03:55:00;;;;;;;2.10;1.90;;;16.80;99.90;;;;;;5093362;28;20203;-69
2022/10/21 03:57:28;;;;;;;3.23;1.60;;;16.80;99.90;;;;;;5094028;28;20252;-69
2022/10/21 03:59:55;;;;;;;1.80;1.70;;;16.80;99.90;;;;;;5093396;28;20230;-67
2022/10/21 04:02:22;;;;;;;1.57;1.47;;;16.80;99.90;;;;;;5093373;28;20206;-69
2022/10/21 04:04:49;;;;;;;1.93;1.73;;;16.80;99.90;;;;;;5093682;28;20198;-68
2022/10/21 04:07:16;;;;;;;1.87;1.77;;;16.70;99.90;;;;;;5093322;28;20191;-68
2022/10/21 04:09:42;;;;;;;2.20;1.60;;;16.70;99.90;;;;;;5093194;28;20226;-69
2022/10/21 04:12:09;;;;;;;2.00;1.80;;;16.70;99.90;;;;;;5093141;28;20213;-68
2022/10/21 04:14:38;;;;;;;1.77;1.60;;;16.70;99.90;;;;;;5093284;28;20209;-69
2022/10/21 04:17:04;;;;;;;1.60;1.50;;;16.70;99.90;;;;;;5093568;28;20229;-69
2022/10/21 04:19:31;;;;;;;2.00;1.60;;;16.70;99.90;;;;;;5093303;28;20700;-68
2022/10/21 04:21:58;;;;;;;1.60;1.50;;;16.70;99.90;;;;;;5092848;28;20306;-68
2022/10/21 04:24:25;;;;;;;1.83;1.73;;;16.70;99.90;;;;;;5092984;28;20249;-68
2022/10/21 04:26:52;;;;;;;2.17;1.70;;;16.70;99.90;;;;;;5093106;28;20207;-68
2022/10/21 04:29:19;;;;;;;1.77;1.67;;;16.80;99.90;;;;;;5093131;28;20246;-68
2022/10/21 04:31:47;;;;;;;2.87;1.80;;;16.80;99.90;;;;;;5093009;28;20231;-69
2022/10/21 04:34:14;;;;;;;1.30;1.20;;;16.70;99.90;;;;;;5093518;28;20199;-67
2022/10/21 04:36:41;;;;;;;6.20;2.00;;;16.70;99.90;;;;;;5093253;28;20233;-68
2022/10/21 04:39:08;;;;;;;1.70;1.60;;;16.70;99.90;;;;;;5094167;28;20310;-68
2022/10/21 04:41:34;;;;;;;1.90;1.40;;;16.70;99.90;;;;;;5093755;28;20290;-66
2022/10/21 04:44:02;;;;;;;1.70;1.60;;;16.70;99.90;;;;;;5090179;28;20242;-67
2022/10/21 04:46:29;;;;;;;3.13;1.70;;;16.60;99.90;;;;;;5093216;28;20206;-68
2022/10/21 04:48:57;;;;;;;2.17;1.90;;;16.60;99.90;;;;;;5092982;28;20218;-69
2022/10/21 04:51:24;;;;;;;1.87;1.77;;;16.50;99.90;;;;;;5092725;28;20194;-69
2022/10/21 04:53:51;;;;;;;1.70;1.60;;;16.40;99.90;;;;;;5093674;28;20205;-67
2022/10/21 04:56:18;;;;;;;3.07;1.87;;;16.50;99.90;;;;;;5093489;28;20225;-68
2022/10/21 04:58:44;;;;;;;2.00;1.90;;;16.60;99.90;;;;;;5094926;28;20321;-68
2022/10/21 05:01:11;;;;;;;2.50;2.30;;;16.50;99.90;;;;;;5094123;28;20586;-68
2022/10/21 05:03:38;;;;;;;3.33;2.07;;;16.50;99.90;;;;;;5094587;28;20622;-67
2022/10/21 05:06:06;;;;;;;2.43;2.23;;;16.60;99.90;;;;;;5094250;28;20195;-68
2022/10/21 05:08:33;;;;;;;2.27;1.90;;;16.60;99.90;;;;;;5095791;28;20708;-66
2022/10/21 05:11:01;;;;;;;2.20;2.00;;;16.60;99.90;;;;;;5100417;28;20205;-67
2022/10/21 05:13:29;;;;;;;1.97;1.80;;;16.60;99.90;;;;;;5102031;28;20205;-67
2022/10/21 05:15:58;;;;;;;2.10;1.83;;;16.60;99.90;;;;;;5096403;28;20258;-68
2022/10/21 05:18:25;;;;;;;2.20;2.00;;;16.60;99.90;;;;;;5092892;28;20226;-67
2022/10/21 05:20:53;;;;;;;2.57;2.00;;;16.60;99.90;;;;;;5094005;28;20207;-68
2022/10/21 05:23:22;;;;;;;2.13;1.90;;;16.60;99.90;;;;;;5093907;28;20291;-67
2022/10/21 05:25:50;;;;;;;1.80;1.50;;;16.60;99.90;;;;;;5094851;28;20202;-70
2022/10/21 05:28:17;;;;;;;2.03;1.83;;;16.60;99.90;;;;;;5096627;28;20222;-67
2022/10/21 05:30:44;;;;;;;2.10;1.73;;;16.60;99.90;;;;;;5097212;28;20222;-67
2022/10/21 05:33:12;;;;;;;1.80;1.70;;;16.60;99.90;;;;;;5096895;28;20420;-67
2022/10/21 05:35:39;;;;;;;1.83;1.73;;;16.70;99.90;;;;;;5098231;28;20285;-67
2022/10/21 05:38:06;;;;;;;1.77;1.63;;;16.70;99.90;;;;;;5096010;28;20222;-66
2022/10/21 05:40:34;;;;;;;1.70;1.60;;;16.70;99.90;;;;;;5098002;28;20198;-67
2022/10/21 05:43:01;;;;;;;2.17;1.97;;;16.60;99.90;;;;;;5094767;28;20288;-69
2022/10/21 05:45:28;;;;;;;2.10;1.90;;;16.60;99.90;;;;;;5092111;28;20209;-67
2022/10/21 05:47:55;;;;;;;2.53;1.80;;;16.50;99.90;;;;;;5092186;28;20199;-66
2022/10/21 05:50:21;;;;;;;1.63;1.53;;;16.60;99.90;;;;;;5092481;28;20217;-68
2022/10/21 05:52:48;;;;;;;2.17;1.97;;;16.60;99.90;;;;;;5092300;28;20205;-68
2022/10/21 05:55:15;;;;;;;2.30;2.00;;;16.60;99.90;;;;;;5092629;28;20209;-68
2022/10/21 05:57:44;;;;;;;2.23;2.00;;;16.60;99.90;;;;;;5093723;28;20768;-67
2022/10/21 06:00:12;;;;;;;2.13;1.93;;;16.60;99.90;;;;;;5094052;28;20216;-68
2022/10/21 06:02:39;;;;;;;2.10;1.87;;;16.60;99.90;;;;;;5093103;28;20203;-67
2022/10/21 06:05:06;;;;;;;2.67;1.90;;;16.60;99.90;;;;;;5092248;28;20212;-66
2022/10/21 06:07:34;;;;;;;2.97;1.77;;;16.60;99.90;;;;;;5095709;28;20247;-69
2022/10/21 06:10:00;;;;;;;2.20;1.80;;;16.60;99.90;;;;;;5093413;28;20953;-66
2022/10/21 06:12:27;;;;;;;1.70;1.60;;;16.60;99.90;;;;;;5094324;28;20293;-68
2022/10/21 06:14:55;;;;;;;2.43;1.97;;;16.70;99.90;;;;;;5095447;28;20199;-70
2022/10/21 06:17:22;;;;;;;1.80;1.70;;;16.70;99.90;;;;;;5095150;28;20791;-67
2022/10/21 06:19:49;;;;;;;2.17;1.97;;;16.70;99.90;;;;;;5096183;28;20318;-66
2022/10/21 06:22:16;;;;;;;2.37;2.07;;;16.70;99.90;;;;;;5109599;28;20230;-69
2022/10/21 06:24:43;;;;;;;1.90;1.80;;;16.80;99.90;;;;;;5102848;28;20198;-68
2022/10/21 06:27:10;;;;;;;2.13;1.70;;;16.80;99.90;;;;;;5103064;28;20199;-69
2022/10/21 06:29:37;;;;;;;1.60;1.50;;;16.80;99.90;;;;;;5104764;28;20230;-69
2022/10/21 06:32:05;;;;;;;2.30;2.10;;;16.80;99.90;;;;;;5104758;28;20205;-67
2022/10/21 06:34:32;;;;;;;1.47;1.37;;;16.80;99.90;;;;;;5092994;28;20626;-67
2022/10/21 06:36:59;;;;;;;1.50;1.40;;;16.70;99.90;;;;;;5096392;28;20222;-68
2022/10/21 06:39:25;;;;;;;1.80;1.70;;;16.80;99.90;;;;;;5096134;28;20254;-67
2022/10/21 06:41:52;;;;;;;1.70;1.60;;;16.80;99.90;;;;;;5094914;28;20214;-68
2022/10/21 06:44:19;;;;;;;1.57;1.47;;;16.80;99.90;;;;;;5095643;28;20198;-67
2022/10/21 06:46:46;;;;;;;1.57;1.47;;;16.80;99.90;;;;;;5095220;28;20195;-67
2022/10/21 06:49:14;;;;;;;2.13;1.90;;;16.80;99.90;;;;;;5096319;28;20724;-68
2022/10/21 06:51:41;;;;;;;1.83;1.47;;;16.80;99.90;;;;;;5096703;28;20578;-71
2022/10/21 06:54:08;;;;;;;1.73;1.63;;;16.90;99.90;;;;;;5095878;28;20365;-66
2022/10/21 06:56:35;;;;;;;1.80;1.70;;;16.80;99.90;;;;;;5097111;28;20198;-66
2022/10/21 06:59:02;;;;;;;2.20;1.50;;;16.80;99.90;;;;;;5096067;28;20277;-68
2022/10/21 07:01:31;;;;;;;1.63;1.43;;;16.80;99.90;;;;;;5094876;28;20209;-68
2022/10/21 07:03:59;;;;;;;1.70;1.60;;;16.80;99.90;;;;;;5095692;28;20205;-66
2022/10/21 07:06:27;;;;;;;1.83;1.73;;;16.80;99.90;;;;;;5095697;28;20212;-66
2022/10/21 07:08:55;;;;;;;1.73;1.43;;;16.80;99.90;;;;;;5094847;28;20313;-66
2022/10/21 07:11:22;;;;;;;1.43;1.33;;;16.80;99.90;;;;;;5094733;28;20250;-69
2022/10/21 07:13:49;;;;;;;2.20;1.50;;;16.80;99.90;;;;;;5093988;28;20213;-66
2022/10/21 07:16:19;;;;;;;1.40;1.30;;;16.80;99.90;;;;;;5094093;28;20216;-67
2022/10/21 07:18:46;;;;;;;1.83;1.37;;;16.90;99.90;;;;;;5093700;28;20222;-68
2022/10/21 07:21:15;;;;;;;1.83;1.30;;;16.80;99.90;;;;;;5094167;28;20209;-66
2022/10/21 07:23:43;;;;;;;1.50;1.40;;;16.80;99.90;;;;;;5092171;28;20318;-68
2022/10/21 07:26:10;;;;;;;1.40;1.30;;;16.80;99.90;;;;;;5098031;28;20228;-67
2022/10/21 07:28:39;;;;;;;1.40;1.30;;;16.80;99.90;;;;;;5103995;28;20268;-67
2022/10/21 07:31:06;;;;;;;3.27;2.40;;;16.80;99.90;;;;;;5102071;28;20207;-68
2022/10/21 07:33:35;;;;;;;1.60;1.50;;;16.80;99.90;;;;;;5093911;28;20281;-68
2022/10/21 07:36:07;;;;;;;1.67;1.57;;;16.80;99.90;;;;;;5099523;28;20286;-67
2022/10/21 07:38:34;;;;;;;1.43;1.33;;;16.80;99.90;;;;;;5092683;28;20222;-68
2022/10/21 07:41:02;;;;;;;1.33;1.23;;;16.90;99.90;;;;;;5096327;28;20195;-66
2022/10/21 07:43:29;;;;;;;1.70;1.60;;;16.90;99.90;;;;;;5103750;28;20199;-69
2022/10/21 07:45:58;;;;;;;3.77;1.57;;;16.90;99.90;;;;;;5099152;28;20195;-68
2022/10/21 07:48:26;;;;;;;1.20;1.20;;;16.90;99.90;;;;;;5095636;28;20218;-66
2022/10/21 07:50:53;;;;;;;1.20;1.13;;;16.90;99.90;;;;;;5094878;28;20214;-69
2022/10/21 07:53:20;;;;;;;1.50;1.40;;;16.90;99.90;;;;;;5094937;28;20202;-67
2022/10/21 07:55:47;;;;;;;1.60;1.50;;;16.90;99.90;;;;;;5094461;28;20207;-67
2022/10/21 07:58:15;;;;;;;1.43;1.33;;;16.90;99.90;;;;;;5094004;28;20219;-67
2022/10/21 08:00:44;;;;;;;1.47;1.27;;;17.00;99.90;;;;;;5093669;28;20207;-69
2022/10/21 08:03:11;;;;;;;1.67;1.40;;;16.90;99.90;;;;;;5093553;28;20588;-68
2022/10/21 08:05:40;;;;;;;1.00;1.00;;;16.90;99.90;;;;;;5093949;28;20233;-69
2022/10/21 08:08:07;;;;;;;1.40;1.30;;;16.90;99.90;;;;;;5093748;28;20708;-69
2022/10/21 08:10:39;;;;;;;1.40;1.20;;;17.00;99.90;;;;;;5093389;28;20668;-68
2022/10/21 08:13:06;;;;;;;1.50;1.10;;;17.00;99.90;;;;;;5093171;28;20687;-69
2022/10/21 08:15:34;;;;;;;1.30;1.17;;;17.10;99.90;;;;;;5090659;28;20209;-69
2022/10/21 08:18:01;;;;;;;1.30;1.20;;;17.10;99.90;;;;;;5089058;28;20227;-69
2022/10/21 08:20:28;;;;;;;1.87;1.40;;;17.00;99.90;;;;;;5093209;28;20256;-68
2022/10/21 08:22:55;;;;;;;1.30;1.20;;;17.00;99.90;;;;;;5093167;28;20224;-67
2022/10/21 08:25:22;;;;;;;1.33;1.23;;;17.00;99.90;;;;;;5093146;28;20207;-67
2022/10/21 08:27:49;;;;;;;1.20;1.10;;;17.00;99.90;;;;;;5093025;28;20213;-70
2022/10/21 08:30:16;;;;;;;1.97;1.60;;;17.00;99.90;;;;;;5091915;28;20202;-69
2022/10/21 08:32:44;;;;;;;1.40;1.30;;;17.00;99.90;;;;;;5093017;28;20206;-68
2022/10/21 08:35:11;;;;;;;1.43;1.33;;;17.00;99.90;;;;;;5092984;28;20221;-68
2022/10/21 08:37:37;;;;;;;1.27;1.20;;;17.10;99.90;;;;;;5092861;28;20313;-68
2022/10/21 08:40:05;;;;;;;1.77;1.30;;;17.10;99.90;;;;;;5099925;28;20203;-70
2022/10/21 08:42:32;;;;;;;1.10;1.10;;;17.10;99.90;;;;;;5096798;28;20309;-69
2022/10/21 08:45:05;;;;;;;1.27;1.17;;;17.20;99.90;;;;;;5102500;28;20198;-67
2022/10/21 08:47:43;;;;;;;0.80;0.80;;;17.20;99.90;;;;;;5098354;28;20695;-67
2022/10/21 08:50:14;;;;;;;1.47;1.07;;;17.10;99.90;;;;;;5103222;28;20321;-69
2022/10/21 08:52:44;;;;;;;1.07;1.07;;;17.10;99.90;;;;;;5105591;28;20266;-68
2022/10/21 08:55:18;;;;;;;0.90;0.90;;;17.10;99.90;;;;;;5110266;28;20199;-69
2022/10/21 08:57:46;;;;;;;1.27;1.17;;;17.10;99.90;;;;;;5113188;28;20255;-66
2022/10/21 09:00:17;;;;;;;1.07;1.03;;;17.30;99.90;;;;;;5107032;28;20198;-69
2022/10/21 09:03:07;;;;;;;0.80;0.80;;;17.10;99.90;;;;;;5108493;28;20205;-69
2022/10/21 09:06:08;;;;;;;0.40;0.40;;;17.20;99.90;;;;;;5105686;28;20220;-68
2022/10/21 09:08:42;;;;;;;0.60;0.60;;;17.20;99.90;;;;;;5100880;28;20253;-68
2022/10/21 09:11:19;;;;;;;0.70;0.70;;;17.30;99.90;;;;;;5107771;28;20266;-67
2022/10/21 09:14:00;;;;;;;0.70;0.70;;;17.30;99.90;;;;;;5104683;28;20217;-68
2022/10/21 09:16:40;;;;;;;0.60;0.60;;;17.40;99.90;;;;;;5099180;28;20206;-68
2022/10/21 09:19:17;;;;;;;0.70;0.70;;;17.50;99.90;;;;;;5103181;28;20313;-67
2022/10/21 09:22:00;;;;;;;0.60;0.60;;;17.50;99.90;;;;;;5099929;28;20202;-69
2022/10/21 09:24:34;;;;;;;0.70;0.70;;;17.50;99.90;;;;;;5101214;28;20217;-69
2022/10/21 09:27:03;;;;;;;0.47;0.47;;;17.60;99.90;;;;;;5100014;28;20199;-68
2022/10/21 09:29:33;;;;;;;0.60;0.60;;;17.60;99.90;;;;;;5099745;28;20317;-69
2022/10/21 09:32:10;;;;;;;0.60;0.60;;;17.60;99.90;;;;;;5099091;28;20222;-68
2022/10/21 09:34:50;;;;;;;0.63;0.63;;;17.60;99.90;;;;;;5100140;28;20206;-69
2022/10/21 09:37:25;;;;;;;0.63;0.63;;;17.60;99.90;;;;;;5099913;28;20194;-69
2022/10/21 09:40:04;;;;;;;0.60;0.60;;;17.60;99.90;;;;;;5098513;28;20286;-69
2022/10/21 09:42:31;;;;;;;0.63;0.63;;;17.60;99.90;;;;;;5098517;28;20661;-69
2022/10/21 09:44:59;;;;;;;0.50;0.50;;;17.60;99.90;;;;;;5104424;28;20267;-68
2022/10/21 09:47:26;;;;;;;0.63;0.50;;;17.70;99.90;;;;;;5108359;28;20232;-69
2022/10/21 09:49:56;;;;;;;0.60;0.60;;;17.70;99.90;;;;;;5111377;28;20230;-69
2022/10/21 09:52:30;;;;;;;0.57;0.57;;;17.60;99.90;;;;;;5110701;28;20210;-69
2022/10/21 09:54:58;;;;;;;0.70;0.70;;;17.60;99.90;;;;;;5107722;28;20274;-69
2022/10/21 09:57:38;;;;;;;0.70;0.70;;;17.60;99.90;;;;;;5101768;28;20579;-69
2022/10/21 10:00:05;;;;;;;1.00;1.00;;;17.60;99.90;;;;;;5101452;28;20203;-69
2022/10/21 10:02:35;;;;;;;1.07;0.90;;;17.60;99.90;;;;;;5097889;28;20202;-69
2022/10/21 10:05:08;;;;;;;0.93;0.93;;;17.60;99.90;;;;;;5098458;28;20209;-69
2022/10/21 10:07:37;;;;;;;0.80;0.80;;;17.60;99.90;;;;;;5102428;28;20254;-70
2022/10/21 10:10:27;;;;;;;1.00;0.90;;;17.70;99.90;;;;;;5101642;28;20246;-69
2022/10/21 10:12:57;;;;;;;0.77;0.77;;;17.70;99.90;;;;;;5101268;28;20261;-69
2022/10/21 10:15:32;;;;;;;0.70;0.70;;;17.60;99.90;;;;;;5099882;28;20204;-69
2022/10/21 10:18:00;;;;;;;0.97;0.97;;;17.60;99.90;;;;;;5102912;28;20302;-69
2022/10/21 10:20:28;;;;;;;0.90;0.90;;;17.70;99.90;;;;;;5102788;28;20297;-69
2022/10/21 10:23:17;;;;;;;1.20;1.10;;;17.70;99.90;;;;;;5102194;28;20266;-70
2022/10/21 10:25:50;;;;;;;0.83;0.80;;;17.80;99.90;;;;;;5089887;28;20209;-69
2022/10/21 10:28:23;;;;;;;0.80;0.80;;;17.70;99.90;;;;;;5101485;28;20268;-69
2022/10/21 10:30:53;;;;;;;0.70;0.70;;;17.80;99.90;;;;;;5103140;28;20289;-69
2022/10/21 10:33:23;;;;;;;0.87;0.87;;;17.80;99.90;;;;;;5100991;28;20597;-69
2022/10/21 10:35:52;;;;;;;0.70;0.70;;;17.90;99.90;;;;;;5100732;28;20630;-69
2022/10/21 10:38:25;;;;;;;0.70;0.70;;;18.00;99.90;;;;;;5100777;28;20237;-69
2022/10/21 10:40:52;;;;;;;0.77;0.77;;;18.00;99.90;;;;;;5102641;28;20199;-69
2022/10/21 10:43:26;;;;;;;0.77;0.70;;;18.10;99.90;;;;;;5102108;28;20680;-70
2022/10/21 10:45:56;;;;;;;1.17;0.87;;;18.20;99.90;;;;;;5101397;28;20234;-69
2022/10/21 10:48:27;;;;;;;0.90;0.70;;;18.30;99.90;;;;;;5103628;28;20251;-69
2022/10/21 10:50:55;;;;;;;0.80;0.80;;;18.40;99.90;;;;;;5103795;28;20278;-69
2022/10/21 10:53:34;;;;;;;0.70;0.70;;;18.50;99.90;;;;;;5103197;28;20308;-69
2022/10/21 10:56:23;;;;;;;0.63;0.63;;;18.60;99.90;;;;;;5102517;28;20222;-68
2022/10/21 10:58:56;;;;;;;0.80;0.80;;;18.50;99.90;;;;;;5103185;28;20322;-69
2022/10/21 11:01:30;;;;;;;0.70;0.70;;;18.50;99.90;;;;;;5106062;28;20302;-69
2022/10/21 11:04:05;;;;;;;0.60;0.60;;;18.50;99.90;;;;;;5108043;28;20228;-70
2022/10/21 11:06:40;;;;;;;0.70;0.70;;;18.40;99.90;;;;;;5100197;28;20194;-69
2022/10/21 11:09:08;;;;;;;0.60;0.60;;;18.40;99.90;;;;;;5095504;28;20290;-69
2022/10/21 11:11:38;;;;;;;0.73;0.73;;;18.30;99.90;;;;;;5090206;28;20290;-69
2022/10/21 11:14:12;;;;;;;0.50;0.50;;;18.30;99.90;;;;;;5102141;28;20206;-69
2022/10/21 11:17:05;;;;;;;0.77;0.77;;;18.30;99.90;;;;;;5096836;28;20270;-67
2022/10/21 11:19:40;;;;;;;0.80;0.80;;;18.20;99.90;;;;;;5102970;28;20226;-69
2022/10/21 11:22:13;;;;;;;0.70;0.70;;;18.20;99.90;;;;;;5099028;28;20234;-70
2022/10/21 11:24:51;;;;;;;0.63;0.63;;;18.20;99.90;;;;;;5101075;28;20229;-69
2022/10/21 11:27:28;;;;;;;0.60;0.60;;;18.20;99.90;;;;;;5099128;28;20664;-70
2022/10/21 11:30:03;;;;;;;0.47;0.47;;;18.10;99.90;;;;;;5099945;28;20222;-69
2022/10/21 11:32:41;;;;;;;0.70;0.70;;;18.10;99.90;;;;;;5101248;28;20206;-69
2022/10/21 11:35:17;;;;;;;0.70;0.70;;;18.10;99.90;;;;;;5098064;28;20286;-69
2022/10/21 11:38:00;;;;;;;0.50;0.50;;;18.10;99.90;;;;;;5106291;28;20205;-69
2022/10/21 11:40:33;;;;;;;0.50;0.47;;;18.10;99.90;;;;;;5104742;28;20642;-69
2022/10/21 11:43:10;;;;;;;0.60;0.60;;;18.10;99.90;;;;;;5103869;28;20285;-70
2022/10/21 11:45:49;;;;;;;0.70;0.70;;;18.00;99.90;;;;;;5086865;28;20210;-70
2022/10/21 11:48:28;;;;;;;0.67;0.67;;;18.00;99.90;;;;;;5100548;28;20310;-69
2022/10/21 11:51:05;;;;;;;0.40;0.40;;;18.00;99.90;;;;;;5103324;28;20229;-68
2022/10/21 11:53:44;;;;;;;1.17;0.90;;;18.00;99.90;;;;;;5103627;28;20194;-70
2022/10/21 11:56:25;;;;;;;0.77;0.77;;;18.00;99.90;;;;;;5103954;28;20314;-68
2022/10/21 11:59:04;;;;;;;0.83;0.83;;;18.00;99.90;;;;;;5103493;28;20253;-69
2022/10/21 12:01:40;;;;;;;0.73;0.73;;;18.00;99.90;;;;;;5109077;28;20206;-70
2022/10/21 12:04:35;;;;;;;1.13;0.73;;;18.00;99.90;;;;;;5105404;28;20630;-69
2022/10/21 12:07:41;;;;;;;0.63;0.63;;;18.00;99.90;;;;;;5102414;28;20209;-70
2022/10/21 12:10:13;;;;;;;1.20;0.80;;;18.00;99.90;;;;;;5062621;28;20206;-68
2022/10/21 12:12:46;;;;;;;0.60;0.60;;;17.90;99.90;;;;;;5104349;28;20241;-68
2022/10/21 12:15:18;;;;;;;0.50;0.50;;;17.90;99.90;;;;;;5104926;28;20347;-70
2022/10/21 12:17:48;;;;;;;0.60;0.60;;;17.90;99.90;;;;;;5099610;28;20244;-69
2022/10/21 12:20:19;;;;;;;0.50;0.50;;;17.90;99.90;;;;;;5096854;28;20215;-69
2022/10/21 12:22:47;;;;;;;0.70;0.70;;;17.90;99.90;;;;;;5105709;28;20267;-69
2022/10/21 12:25:25;;;;;;;0.80;0.80;;;17.90;99.90;;;;;;5102244;28;20222;-70
2022/10/21 12:27:58;;;;;;;0.60;0.60;;;17.80;99.90;;;;;;5108987;28;20263;-69
2022/10/21 12:30:32;;;;;;;0.80;0.80;;;17.80;99.90;;;;;;5111534;28;20294;-70
2022/10/21 12:33:14;;;;;;;0.90;0.90;;;17.80;99.90;;;;;;5112624;28;20222;-69
2022/10/21 12:35:45;;;;;;;0.73;0.73;;;17.70;99.90;;;;;;5109513;28;20221;-69
2022/10/21 12:38:43;;;;;;;0.60;0.60;;;17.70;99.90;;;;;;5111351;28;20230;-69
2022/10/21 12:41:33;;;;;;;1.00;0.70;;;17.70;99.90;;;;;;5103999;28;20202;-70
2022/10/21 12:44:21;;;;;;;0.60;0.60;;;17.80;99.90;;;;;;5105773;28;20377;-70
2022/10/21 12:46:51;;;;;;;0.50;0.50;;;17.80;99.90;;;;;;5104418;28;20203;-68
2022/10/21 12:49:24;;;;;;;0.80;0.80;;;17.80;99.90;;;;;;5105912;28;20282;-70
2022/10/21 12:51:55;;;;;;;0.47;0.47;;;17.80;99.90;;;;;;5105386;28;20290;-69
2022/10/21 12:54:25;;;;;;;0.57;0.57;;;17.70;99.90;;;;;;5103138;28;20194;-69
2022/10/21 12:57:00;;;;;;;0.50;0.50;;;17.70;99.90;;;;;;5103324;28;20226;-70
2022/10/21 12:59:31;;;;;;;0.70;0.70;;;17.80;99.90;;;;;;5105184;28;20254;-68
2022/10/21 13:02:27;;;;;;;1.77;0.80;;;17.80;99.90;;;;;;5105592;28;20769;-68
2022/10/21 13:04:56;;;;;;;0.70;0.70;;;17.80;99.90;;;;;;5056949;28;20206;-69
2022/10/21 13:07:32;;;;;;;0.60;0.60;;;17.80;99.90;;;;;;5103988;28;20262;-68